createdAt,value
2022-08-25T00:01:49.988Z,4.53
2022-08-25T00:04:18.334Z,5.60
2022-08-25T00:06:46.314Z,4.82
2022-08-25T00:09:15.452Z,6.95
2022-08-25T00:11:43.132Z,4.93
2022-08-25T00:14:13.782Z,6.68
2022-08-25T00:16:40.913Z,5.38
2022-08-25T00:19:09.786Z,5.78
2022-08-25T00:21:37.421Z,7.13
2022-08-25T00:24:04.388Z,6.38
2022-08-25T00:26:31.421Z,6.65
2022-08-25T00:29:01.583Z,4.57
2022-08-25T00:31:37.821Z,5.72
2022-08-25T00:34:07.647Z,5.32
2022-08-25T00:36:35.292Z,5.40
2022-08-25T00:39:02.113Z,6.97
2022-08-25T00:41:28.912Z,5.65
2022-08-25T00:43:58.641Z,5.68
2022-08-25T00:46:28.401Z,6.13
2022-08-25T00:48:59.666Z,7.07
2022-08-25T00:51:30.984Z,5.75
2022-08-25T00:53:58.336Z,6.07
2022-08-25T00:56:25.823Z,6.50
2022-08-25T00:58:52.996Z,6.25
2022-08-25T01:01:20.173Z,7.70
2022-08-25T01:03:46.895Z,6.30
2022-08-25T01:06:15.182Z,6.72
2022-08-25T01:08:42.129Z,7.05
2022-08-25T01:11:10.822Z,7.35
2022-08-25T01:13:39.808Z,6.63
2022-08-25T01:16:06.905Z,6.50
2022-08-25T01:18:44.019Z,7.35
2022-08-25T01:21:12.165Z,6.18
2022-08-25T01:23:39.054Z,7.00
2022-08-25T01:26:08.748Z,9.80
2022-08-25T01:28:36.121Z,6.45
2022-08-25T01:31:03.332Z,7.28
2022-08-25T01:33:30.084Z,8.48
2022-08-25T01:35:56.870Z,7.13
2022-08-25T01:38:25.033Z,7.22
2022-08-25T01:40:51.877Z,7.95
2022-08-25T01:43:26.964Z,7.43
2022-08-25T01:48:20.588Z,7.95
2022-08-25T01:50:47.317Z,8.07
2022-08-25T01:53:18.902Z,8.57
2022-08-25T01:55:53.080Z,9.68
2022-08-25T01:58:23.243Z,7.85
2022-08-25T02:00:51.398Z,7.68
2022-08-25T02:03:19.889Z,8.55
2022-08-25T02:05:47.961Z,8.63
2022-08-25T02:08:15.411Z,8.50
2022-08-25T02:10:42.109Z,9.30
2022-08-25T02:13:10.392Z,8.57
2022-08-25T02:15:41.081Z,7.88
2022-08-25T02:18:07.922Z,9.57
2022-08-25T02:20:34.716Z,8.70
2022-08-25T02:23:01.433Z,8.60
2022-08-25T02:25:28.130Z,9.00
2022-08-25T02:27:54.882Z,8.48
2022-08-25T02:30:23.462Z,7.88
2022-08-25T02:32:50.180Z,9.52
2022-08-25T02:35:17.355Z,12.65
2022-08-25T02:37:44.061Z,8.23
2022-08-25T02:40:11.756Z,8.05
2022-08-25T02:42:38.575Z,9.20
2022-08-25T02:45:09.749Z,10.20
2022-08-25T02:47:37.886Z,10.10
2022-08-25T02:50:04.953Z,8.27
2022-08-25T02:52:31.666Z,8.35
2022-08-25T02:54:58.432Z,9.15
2022-08-25T02:57:25.185Z,8.68
2022-08-25T02:59:52.058Z,9.70
2022-08-25T03:02:19.200Z,7.68
2022-08-25T03:04:47.626Z,8.85
2022-08-25T03:07:14.405Z,9.45
2022-08-25T03:09:42.100Z,13.02
2022-08-25T03:12:09.620Z,8.50
2022-08-25T03:14:36.352Z,8.32
2022-08-25T03:17:04.309Z,9.43
2022-08-25T03:19:35.762Z,7.97
2022-08-25T03:22:03.971Z,9.45
2022-08-25T03:24:30.781Z,12.38
2022-08-25T03:26:57.650Z,8.55
2022-08-25T03:29:25.902Z,8.63
2022-08-25T03:31:53.542Z,8.80
2022-08-25T03:34:21.800Z,8.98
2022-08-25T03:36:50.250Z,13.77
2022-08-25T03:39:18.986Z,10.00
2022-08-25T03:41:47.176Z,9.52
2022-08-25T03:44:14.296Z,9.85
2022-08-25T03:46:43.904Z,11.25
2022-08-25T03:49:12.267Z,10.73
2022-08-25T03:51:40.737Z,11.93
2022-08-25T03:54:08.009Z,10.07
2022-08-25T03:56:36.541Z,9.68
2022-08-25T03:59:03.610Z,11.10
2022-08-25T04:01:30.367Z,12.18
2022-08-25T04:03:57.246Z,10.55
2022-08-25T04:06:23.945Z,8.63
2022-08-25T04:08:52.719Z,10.02
2022-08-25T04:11:21.823Z,10.25
2022-08-25T04:13:51.941Z,9.65
2022-08-25T04:16:20.720Z,10.35
2022-08-25T04:18:48.655Z,9.93
2022-08-25T04:21:16.442Z,12.25
2022-08-25T04:23:44.462Z,9.27
2022-08-25T04:26:12.316Z,10.93
2022-08-25T04:28:39.361Z,11.23
2022-08-25T04:31:08.938Z,11.25
2022-08-25T04:33:35.967Z,9.05
2022-08-25T04:36:03.215Z,8.75
2022-08-25T04:38:30.836Z,8.63
2022-08-25T04:40:57.955Z,10.65
2022-08-25T04:43:24.775Z,10.40
2022-08-25T04:45:52.354Z,10.05
2022-08-25T04:48:21.145Z,10.50
2022-08-25T04:50:48.035Z,9.70
2022-08-25T04:53:15.218Z,10.13
2022-08-25T04:55:42.731Z,10.95
2022-08-25T04:58:14.594Z,11.80
2022-08-25T05:00:43.983Z,10.20
2022-08-25T05:03:10.777Z,8.80
2022-08-25T05:05:39.114Z,11.55
2022-08-25T05:08:06.644Z,8.40
2022-08-25T05:10:34.000Z,9.15
2022-08-25T05:13:01.069Z,10.43
2022-08-25T05:15:46.457Z,10.80
2022-08-25T05:18:13.458Z,11.68
2022-08-25T05:20:41.700Z,14.02
2022-08-25T05:23:08.376Z,10.88
2022-08-25T05:25:35.144Z,8.20
2022-08-25T05:28:02.164Z,11.50
2022-08-25T05:30:29.000Z,10.45
2022-08-25T05:32:55.885Z,11.90
2022-08-25T05:35:22.616Z,9.48
2022-08-25T05:37:50.680Z,9.98
2022-08-25T05:40:17.610Z,10.57
2022-08-25T05:42:44.439Z,10.73
2022-08-25T05:45:15.858Z,10.73
2022-08-25T05:47:47.256Z,9.05
2022-08-25T05:50:13.982Z,11.95
2022-08-25T05:52:40.881Z,12.00
2022-08-25T05:55:09.798Z,9.18
2022-08-25T05:57:36.758Z,10.25
2022-08-25T06:00:05.298Z,12.80
2022-08-25T06:02:41.426Z,9.10
2022-08-25T06:05:08.506Z,10.02
2022-08-25T06:07:36.389Z,11.50
2022-08-25T06:10:03.497Z,12.43
2022-08-25T06:12:33.633Z,9.40
2022-08-25T06:15:00.349Z,11.40
2022-08-25T06:17:27.180Z,9.70
2022-08-25T06:19:54.997Z,10.15
2022-08-25T06:22:22.473Z,11.80
2022-08-25T06:24:49.209Z,8.52
2022-08-25T06:27:15.898Z,8.73
2022-08-25T06:29:44.202Z,12.38
2022-08-25T06:32:11.233Z,12.93
2022-08-25T06:34:38.054Z,10.65
2022-08-25T06:37:05.473Z,8.70
2022-08-25T06:39:32.493Z,8.63
2022-08-25T06:41:59.194Z,7.68
2022-08-25T06:44:27.628Z,9.43
2022-08-25T06:46:55.786Z,6.88
2022-08-25T06:49:22.621Z,7.35
2022-08-25T06:51:50.642Z,10.02
2022-08-25T06:54:17.417Z,8.57
2022-08-25T06:56:44.205Z,7.80
2022-08-25T06:59:11.189Z,10.77
2022-08-25T07:01:38.169Z,7.03
2022-08-25T07:04:11.861Z,6.95
2022-08-25T07:06:40.865Z,5.65
2022-08-25T07:09:08.522Z,6.93
2022-08-25T07:11:35.538Z,9.88
2022-08-25T07:14:03.097Z,7.03
2022-08-25T07:16:31.483Z,10.82
2022-08-25T07:18:59.120Z,11.80
2022-08-25T07:21:33.487Z,7.10
2022-08-25T07:24:05.000Z,10.07
2022-08-25T07:26:38.305Z,8.18
2022-08-25T07:29:09.548Z,5.13
2022-08-25T07:31:36.456Z,6.80
2022-08-25T07:34:23.159Z,9.35
2022-08-25T07:36:51.338Z,6.50
2022-08-25T07:39:18.337Z,5.68
2022-08-25T07:41:51.925Z,11.23
2022-08-25T07:44:19.676Z,8.77
2022-08-25T07:46:46.404Z,7.25
2022-08-25T07:49:16.707Z,5.40
2022-08-25T07:52:04.159Z,5.40
2022-08-25T07:54:34.238Z,9.27
2022-08-25T07:57:01.690Z,5.90
2022-08-25T07:59:28.407Z,5.57
2022-08-25T08:01:55.213Z,7.03
2022-08-25T08:04:22.344Z,5.00
2022-08-25T08:06:52.294Z,7.80
2022-08-25T08:09:18.983Z,4.53
2022-08-25T08:11:54.026Z,9.55
2022-08-25T08:14:21.553Z,8.18
2022-08-25T08:16:48.307Z,7.63
2022-08-25T08:19:15.155Z,5.85
2022-08-25T08:21:42.287Z,7.65
2022-08-25T08:24:24.801Z,5.80
2022-08-25T08:26:59.300Z,5.03
2022-08-25T08:29:26.398Z,4.90
2022-08-25T08:31:53.438Z,4.50
2022-08-25T08:34:20.318Z,5.15
2022-08-25T08:36:52.037Z,5.22
2022-08-25T08:39:18.843Z,8.85
2022-08-25T08:42:18.981Z,3.70
2022-08-25T08:44:58.114Z,4.00
2022-08-25T08:47:36.814Z,9.02
2022-08-25T08:50:06.913Z,4.60
2022-08-25T08:52:39.243Z,6.63
2022-08-25T08:55:11.506Z,4.53
2022-08-25T08:57:44.931Z,4.53
2022-08-25T09:00:12.849Z,4.18
2022-08-25T09:02:51.541Z,6.25
2022-08-25T09:05:21.169Z,3.75
2022-08-25T09:08:08.058Z,7.82
2022-08-25T09:10:48.841Z,4.45
2022-08-25T09:13:32.342Z,6.30
2022-08-25T09:16:31.899Z,4.03
2022-08-25T09:19:11.859Z,3.78
2022-08-25T09:21:54.947Z,3.22
2022-08-25T09:24:30.948Z,5.68
2022-08-25T09:27:06.952Z,7.15
2022-08-25T09:29:44.713Z,7.53
2022-08-25T09:32:11.488Z,5.32
2022-08-25T09:34:41.914Z,7.82
2022-08-25T09:37:09.223Z,5.50
2022-08-25T09:39:36.550Z,4.15
2022-08-25T09:42:03.619Z,3.63
2022-08-25T09:44:34.025Z,6.97
2022-08-25T09:47:04.934Z,3.63
2022-08-25T09:49:37.703Z,2.42
2022-08-25T09:52:26.981Z,4.10
2022-08-25T09:54:54.546Z,7.43
2022-08-25T09:57:30.296Z,3.90
2022-08-25T09:59:57.769Z,6.07
2022-08-25T10:02:28.495Z,4.90
2022-08-25T10:04:55.944Z,3.45
2022-08-25T10:07:26.742Z,4.60
2022-08-25T10:09:55.034Z,4.35
2022-08-25T10:12:27.969Z,5.22
2022-08-25T10:14:55.330Z,5.00
2022-08-25T10:17:29.399Z,5.47
2022-08-25T10:20:15.276Z,3.78
2022-08-25T10:25:11.380Z,4.35
2022-08-25T10:27:44.603Z,3.53
2022-08-25T10:30:16.937Z,3.97
2022-08-25T10:33:13.528Z,4.28
2022-08-25T10:35:55.187Z,5.68
2022-08-25T10:38:36.264Z,4.40
2022-08-25T10:41:16.618Z,2.72
2022-08-25T10:43:47.647Z,2.40
2022-08-25T10:46:18.757Z,2.13
2022-08-25T10:48:58.574Z,2.28
2022-08-25T10:51:51.097Z,6.38
2022-08-25T10:54:31.458Z,4.25
2022-08-25T10:57:07.051Z,4.53
2022-08-25T10:59:46.761Z,6.03
2022-08-25T11:02:43.491Z,3.20
2022-08-25T11:05:14.044Z,5.63
2022-08-25T11:07:44.509Z,2.70
2022-08-25T11:10:15.427Z,2.25
2022-08-25T11:12:44.450Z,1.77
2022-08-25T11:15:15.001Z,2.13
2022-08-25T11:17:50.341Z,1.95
2022-08-25T11:20:26.807Z,3.38
2022-08-25T11:23:04.574Z,3.97
2022-08-25T11:25:35.167Z,3.95
2022-08-25T11:28:08.384Z,1.67
2022-08-25T11:30:35.179Z,2.80
2022-08-25T11:33:01.981Z,1.58
2022-08-25T11:35:34.026Z,3.05
2022-08-25T11:38:12.408Z,3.38
2022-08-25T11:40:50.075Z,2.13
2022-08-25T11:43:31.493Z,2.33
2022-08-25T11:46:10.357Z,4.95
2022-08-25T11:48:46.522Z,6.63
2022-08-25T11:51:33.732Z,2.45
2022-08-25T11:54:25.233Z,2.03
2022-08-25T11:57:04.856Z,1.52
2022-08-25T12:00:01.043Z,1.75
2022-08-25T12:02:31.397Z,2.50
2022-08-25T12:04:58.306Z,5.47
2022-08-25T12:07:29.535Z,3.85
2022-08-25T12:10:18.551Z,2.35
2022-08-25T12:13:04.855Z,2.13
2022-08-25T12:15:56.557Z,2.67
2022-08-25T12:18:45.629Z,2.25
2022-08-25T12:21:16.041Z,1.48
2022-08-25T12:23:51.578Z,6.13
2022-08-25T12:26:38.617Z,2.70
2022-08-25T12:29:07.709Z,2.03
2022-08-25T12:31:49.235Z,2.15
2022-08-25T12:34:27.744Z,1.50
2022-08-25T12:36:59.695Z,4.68
2022-08-25T12:39:32.206Z,2.28
2022-08-25T12:47:27.236Z,1.83
2022-08-25T12:49:54.757Z,1.90
2022-08-25T12:52:27.790Z,2.55
2022-08-25T12:54:59.539Z,4.30
2022-08-25T12:57:34.371Z,2.78
2022-08-25T13:00:07.334Z,4.13
2022-08-25T13:02:52.028Z,3.83
2022-08-25T13:08:21.837Z,1.80
2022-08-25T13:10:51.173Z,5.35
2022-08-25T13:13:24.471Z,1.77
2022-08-25T13:15:59.500Z,2.70
2022-08-25T13:18:28.844Z,3.72
2022-08-25T13:21:03.320Z,1.60
2022-08-25T13:23:31.602Z,5.72
2022-08-25T13:25:59.896Z,2.42
2022-08-25T13:28:29.895Z,3.17
2022-08-25T13:31:00.229Z,2.15
2022-08-25T13:33:27.918Z,3.42
2022-08-25T13:36:15.747Z,1.75
2022-08-25T13:38:45.797Z,3.95
2022-08-25T13:41:20.268Z,3.30
2022-08-25T13:43:47.906Z,1.35
2022-08-25T13:46:19.718Z,6.45
2022-08-25T13:48:49.367Z,2.05
2022-08-25T13:51:23.650Z,1.80
2022-08-25T13:53:53.830Z,2.53
2022-08-25T13:56:38.523Z,3.50
2022-08-25T13:59:20.975Z,1.85
2022-08-25T14:01:50.081Z,1.70
2022-08-25T14:04:31.873Z,11.60
2022-08-25T14:07:26.609Z,1.80
2022-08-25T14:10:03.814Z,5.50
2022-08-25T14:12:40.010Z,3.33
2022-08-25T14:15:15.067Z,3.72
2022-08-25T14:17:44.043Z,4.38
2022-08-25T14:20:25.682Z,10.15
2022-08-25T14:22:55.106Z,6.30
2022-08-25T14:25:25.318Z,5.68
2022-08-25T14:28:13.765Z,4.47
2022-08-25T14:30:46.085Z,7.38
2022-08-25T14:33:14.317Z,7.97
2022-08-25T14:35:42.315Z,4.60
2022-08-25T14:38:11.068Z,8.02
2022-08-25T14:40:38.642Z,7.00
2022-08-25T14:43:09.923Z,5.47
2022-08-25T14:45:39.502Z,4.93
2022-08-25T14:48:10.240Z,5.35
2022-08-25T14:50:37.802Z,4.78
2022-08-25T14:53:08.014Z,9.23
2022-08-25T14:55:35.047Z,5.78
2022-08-25T14:58:02.250Z,3.05
2022-08-25T15:00:31.146Z,5.25
2022-08-25T15:02:58.075Z,5.75
2022-08-25T15:05:28.379Z,5.13
2022-08-25T15:08:14.367Z,5.10
2022-08-25T15:10:41.702Z,4.40
2022-08-25T15:13:10.221Z,4.15
2022-08-25T15:15:52.442Z,5.60
2022-08-25T15:18:20.516Z,3.42
2022-08-25T15:20:47.348Z,11.60
2022-08-25T15:23:17.093Z,3.63
2022-08-25T15:25:45.863Z,10.05
2022-08-25T15:28:12.817Z,8.57
2022-08-25T15:30:45.862Z,3.40
2022-08-25T15:33:12.835Z,3.80
2022-08-25T15:35:39.953Z,3.88
2022-08-25T15:38:06.848Z,4.25
2022-08-25T15:40:37.598Z,8.48
2022-08-25T15:43:04.841Z,10.40
2022-08-25T15:45:32.129Z,11.00
2022-08-25T15:48:01.089Z,11.10
2022-08-25T15:50:28.006Z,9.68
2022-08-25T15:52:54.758Z,10.65
2022-08-25T15:55:21.548Z,8.07
2022-08-25T15:57:49.662Z,11.23
2022-08-25T16:00:18.066Z,13.98
2022-08-25T16:02:45.398Z,19.08
2022-08-25T16:05:16.252Z,16.85
2022-08-25T16:07:45.893Z,23.27
2022-08-25T16:10:13.614Z,17.90
2022-08-25T16:12:42.689Z,18.70
2022-08-25T16:15:12.253Z,20.08
2022-08-25T16:17:40.676Z,19.75
2022-08-25T16:20:12.643Z,20.98
2022-08-25T16:22:42.984Z,20.98
2022-08-25T16:25:11.396Z,22.10
2022-08-25T16:27:39.201Z,21.90
2022-08-25T16:30:07.344Z,24.45
2022-08-25T16:32:34.764Z,22.58
2022-08-25T16:35:02.517Z,22.85
2022-08-25T16:37:29.865Z,25.80
2022-08-25T16:39:58.434Z,23.80
2022-08-25T16:42:26.518Z,24.52
2022-08-25T16:44:53.912Z,23.35
2022-08-25T16:47:25.180Z,22.27
2022-08-25T16:49:53.797Z,21.80
2022-08-25T16:52:39.279Z,21.15
2022-08-25T16:55:15.936Z,24.75
2022-08-25T16:57:46.042Z,20.17
2022-08-25T17:00:17.654Z,26.05
2022-08-25T17:02:44.553Z,23.83
2022-08-25T17:05:12.473Z,18.83
2022-08-25T17:07:39.448Z,20.08
2022-08-25T17:10:07.632Z,21.42
2022-08-25T17:12:40.881Z,21.95
2022-08-25T17:15:08.080Z,21.77
2022-08-25T17:17:36.483Z,23.63
2022-08-25T17:20:04.881Z,22.27
2022-08-25T17:22:31.755Z,23.30
2022-08-25T17:25:00.730Z,19.77
2022-08-25T17:27:28.165Z,20.58
2022-08-25T17:29:56.869Z,20.73
2022-08-25T17:32:30.230Z,22.25
2022-08-25T17:34:57.529Z,20.40
2022-08-25T17:37:24.644Z,20.73
2022-08-25T17:40:02.504Z,18.42
2022-08-25T17:42:31.354Z,19.13
2022-08-25T17:45:00.087Z,20.05
2022-08-25T17:47:27.054Z,24.23
2022-08-25T17:49:54.272Z,18.73
2022-08-25T17:52:25.464Z,21.65
2022-08-25T17:54:52.893Z,20.65
2022-08-25T17:57:19.834Z,17.65
2022-08-25T17:59:48.198Z,20.20
2022-08-25T18:02:16.500Z,26.40
2022-08-25T18:04:43.913Z,24.83
2022-08-25T18:07:10.850Z,20.02
2022-08-25T18:09:37.566Z,19.67
2022-08-25T18:12:04.904Z,22.05
2022-08-25T18:14:31.667Z,21.42
2022-08-25T18:17:00.135Z,22.33
2022-08-25T18:19:28.246Z,19.90
2022-08-25T18:21:55.186Z,23.15
2022-08-25T18:24:23.708Z,23.30
2022-08-25T18:26:50.597Z,20.63
2022-08-25T18:29:17.683Z,22.67
2022-08-25T18:31:46.506Z,22.20
2022-08-25T18:34:15.507Z,23.50
2022-08-25T18:36:45.022Z,25.20
2022-08-25T18:39:34.595Z,25.77
2022-08-25T18:42:02.042Z,23.10
2022-08-25T18:44:29.370Z,23.77
2022-08-25T18:46:56.805Z,27.30
2022-08-25T18:49:26.910Z,23.17
2022-08-25T18:51:56.909Z,24.65
2022-08-25T18:54:23.962Z,28.13
2022-08-25T18:56:51.862Z,26.55
2022-08-25T18:59:19.438Z,25.55
2022-08-25T19:01:46.197Z,23.45
2022-08-25T19:04:14.977Z,27.17
2022-08-25T19:06:43.886Z,24.75
2022-08-25T19:09:12.089Z,23.20
2022-08-25T19:11:38.844Z,19.15
2022-08-25T19:14:12.041Z,23.40
2022-08-25T19:16:41.275Z,21.15
2022-08-25T19:19:12.495Z,19.65
2022-08-25T19:21:39.803Z,20.00
2022-08-25T19:24:07.621Z,17.33
2022-08-25T19:26:37.005Z,20.13
2022-08-25T19:29:05.694Z,20.30
2022-08-25T19:31:36.255Z,12.07
2022-08-25T19:34:03.756Z,23.98
2022-08-25T19:36:30.851Z,18.45
2022-08-25T19:39:00.210Z,21.10
2022-08-25T19:41:28.542Z,18.98
2022-08-25T19:43:57.694Z,17.38
2022-08-25T19:46:32.507Z,17.10
2022-08-25T19:49:06.294Z,20.50
2022-08-25T19:51:34.324Z,17.70
2022-08-25T19:54:02.839Z,15.30
2022-08-25T19:56:30.030Z,18.17
2022-08-25T19:58:58.846Z,16.08
2022-08-25T20:01:25.665Z,17.85
2022-08-25T20:03:52.482Z,16.15
2022-08-25T20:06:19.515Z,16.35
2022-08-25T20:08:46.339Z,18.00
2022-08-25T20:11:13.826Z,17.15
2022-08-25T20:13:40.589Z,17.70
2022-08-25T20:16:08.837Z,19.83
2022-08-25T20:18:36.314Z,16.05
2022-08-25T20:21:03.011Z,15.20
2022-08-25T20:23:49.549Z,19.13
2022-08-25T20:28:42.869Z,18.80
2022-08-25T20:31:12.974Z,16.77
2022-08-25T20:33:40.040Z,13.98
2022-08-25T20:36:07.448Z,15.57
2022-08-25T20:38:34.261Z,13.00
2022-08-25T20:41:01.441Z,20.52
2022-08-25T20:43:29.720Z,20.75
2022-08-25T20:46:00.389Z,15.70
2022-08-25T20:48:29.193Z,14.73
2022-08-25T20:50:57.428Z,19.25
2022-08-25T20:53:25.484Z,14.35
2022-08-25T20:55:52.203Z,18.05
2022-08-25T20:58:19.134Z,16.20
2022-08-25T21:00:46.168Z,14.50
2022-08-25T21:03:12.963Z,11.75
2022-08-25T21:05:41.516Z,15.73
2022-08-25T21:08:09.134Z,13.70
2022-08-25T21:10:37.860Z,13.25
2022-08-25T21:13:04.614Z,11.88
2022-08-25T21:15:31.589Z,15.65
2022-08-25T21:17:58.374Z,13.80
2022-08-25T21:20:26.331Z,14.00
2022-08-25T21:22:54.523Z,14.43
2022-08-25T21:25:21.735Z,11.52
2022-08-25T21:27:49.239Z,13.35
2022-08-25T21:30:16.301Z,13.57
2022-08-25T21:32:53.544Z,15.75
2022-08-25T21:35:21.508Z,15.63
2022-08-25T21:37:53.519Z,13.43
2022-08-25T21:40:22.774Z,9.00
2022-08-25T21:42:49.741Z,13.57
2022-08-25T21:45:16.792Z,14.10
2022-08-25T21:47:47.851Z,7.78
2022-08-25T21:50:14.595Z,4.10
2022-08-25T21:52:42.387Z,8.13
2022-08-25T21:55:16.120Z,8.90
2022-08-25T21:57:44.535Z,7.07
2022-08-25T22:00:14.058Z,8.80
2022-08-25T22:02:43.800Z,5.72
2022-08-25T22:05:11.494Z,5.70
2022-08-25T22:07:41.761Z,5.10
2022-08-25T22:10:16.541Z,5.35
2022-08-25T22:12:45.979Z,4.45
2022-08-25T22:15:15.566Z,7.22
2022-08-25T22:17:42.574Z,5.43
2022-08-25T22:20:13.294Z,7.53
2022-08-25T22:22:39.994Z,3.30
2022-08-25T22:25:07.249Z,6.43
2022-08-25T22:27:35.058Z,5.00
2022-08-25T22:30:04.476Z,3.90
2022-08-25T22:32:31.998Z,5.15
2022-08-25T22:34:58.728Z,7.78
2022-08-25T22:37:25.621Z,5.22
2022-08-25T22:39:52.371Z,5.22
2022-08-25T22:42:19.440Z,5.82
2022-08-25T22:44:53.894Z,4.95
2022-08-25T22:47:22.073Z,2.33
2022-08-25T22:49:48.906Z,5.03
2022-08-25T22:52:15.629Z,7.97
2022-08-25T22:54:42.448Z,5.95
2022-08-25T22:57:09.884Z,2.70
2022-08-25T22:59:36.906Z,6.35
2022-08-25T23:02:04.105Z,6.95
2022-08-25T23:04:32.177Z,6.32
2022-08-25T23:06:58.892Z,5.38
2022-08-25T23:09:25.617Z,5.03
2022-08-25T23:11:52.306Z,6.28
2022-08-25T23:14:19.307Z,9.10
2022-08-25T23:16:46.194Z,4.75
2022-08-25T23:19:14.343Z,3.83
2022-08-25T23:22:01.941Z,11.02
2022-08-25T23:24:30.664Z,6.97
2022-08-25T23:26:58.638Z,8.48
2022-08-25T23:29:25.369Z,8.77
2022-08-25T23:31:53.520Z,6.18
2022-08-25T23:34:21.578Z,3.60
2022-08-25T23:36:50.324Z,4.28
2022-08-25T23:39:17.186Z,4.18
2022-08-25T23:41:44.389Z,3.83
2022-08-25T23:44:11.571Z,5.50
2022-08-25T23:46:39.551Z,4.45
2022-08-25T23:49:08.213Z,4.95
2022-08-25T23:51:38.063Z,5.18
2022-08-25T23:54:09.540Z,7.72
2022-08-25T23:56:38.115Z,4.45
2022-08-25T23:59:11.534Z,4.47
